METAR AND TAF INFORMATION
METAR FOR EKRN
ADDS - METARS form results

(1242 UTC 17 November 2018)
Data provider http://aviationweather.gov/metar/data/
 
METAR text: EKRN 171220Z AUTO 11003KT 9999NDV SCT017/// BKN240/// 06/02 Q1042
Conditions at: EKRN (RONNE , DK) observed 1220 UTC 17 November 2018
Temperature: 6.0°C (43°F)
Dewpoint: 2.0°C (36°F) [RH = 75%]
Pressure (altimeter): 30.77 inches Hg (1042.0 mb)
Winds: from the ESE (110 degrees) at 3 MPH (3 knots; 1.5 m/s)
Visibility: missing
Ceiling: 24000 feet AGL
Clouds: scattered clouds at 1700 feet AGL
broken clouds at 24000 feet AGL
Weather: no significant weather observed at this time

METAR text: EKRN 171150Z AUTO 14004KT 9999NDV NCD 07/03 Q1041
Conditions at: EKRN (RONNE , DK) observed 1150 UTC 17 November 2018
Temperature: 7.0°C (45°F)
Dewpoint: 3.0°C (37°F) [RH = 76%]
Pressure (altimeter): 30.74 inches Hg (1041.0 mb)
Winds: from the SE (140 degrees) at 5 MPH (4 knots; 2.1 m/s)
Visibility: missing
Ceiling: at least 12,000 feet AGL
Clouds: sky clear below 12,000 feet AGL
Weather: no significant weather observed at this time

Forecast for: EKRN (RONNE , DK)
Text: TAF EKRN 171121Z 1712/1721 VRB03KT 9999 SCT020
Forecast period: 1200 to 2100 UTC 17 November 2018
Forecast type: FROM: standard forecast or significant change
Winds: variable direction winds at 3 MPH (3 knots; 1.5 m/s)
Visibility: 6 or more miles 10+ km)
Ceiling: at least 12,000 feet AGL
Clouds: scattered clouds at 2000 feet AGL
Weather: no significant weather forecast for this period
Text: TEMPO 1712/1721 BKN012
Forecast period: 1200 to 2100 UTC 17 November 2018
Forecast type: TEMPORARY: The following changes expected for less than half the time period
Visibility: missing
Ceiling: 1200 feet AGL
Clouds: broken clouds at 1200 feet AGL
Weather: no significant weather forecast for this period

 AIRPORT MAP

 RUNWAY INFORMATION
Runway 11 Runway length 6568 ft Runway width 148 ft
Runway elevation 46 ft Runway displaced threshold 0 ft Runway heading 114
Runway 29 Runway length 6568 ft Runway width 148 ft
Runway elevation 51 ft Runway displaced threshold 0 ft Runway heading 294

 AIRPORT FREQUENCIES
Type APP/TWR Name Frequency 118.325 MHZ
Type MISC Name HANDLING Frequency 131.55 MHZ

 AIRPORT NEAR NAVIGATION AIDS
Type TACAN Name Ronne Frequency 112000 KHZ
Type VOR-DME Name Ronne Frequency 112000 KHZ



Copyright © 2011 - 2018 BirgenAir Virtual Airlines. All rights reserved. Developed by Goktug Unver